Time;durP1;ratioP1;P1;durP2;ratioP2;P2;SDS_P1;SDS_P2;PMS_P1;PMS_P2;Temp;Humidity;BMP_temperature;BMP_pressure;BME280_temperature;BME280_humidity;BME280_pressure;Samples;Min_cycle;Max_cycle;Signal;HPM_P1;HPM_P2
2022/05/18 00:01:30;;;;;;;3.83;1.85;;;;;;;12.12;96.30;98820.44;5044224;28;20024;-70
2022/05/18 00:03:56;;;;;;;4.07;2.70;;;;;;;12.08;98.20;98834.63;5063678;28;20092;-70
2022/05/18 00:06:21;;;;;;;2.22;1.75;;;;;;;12.11;98.16;98837.19;5062654;28;20020;-70
2022/05/18 00:08:47;;;;;;;2.22;1.73;;;;;;;12.14;96.25;98834.47;5054316;28;20032;-70
2022/05/18 00:11:15;;;;;;;5.55;2.00;;;;;;;12.10;95.94;98834.56;5055907;28;20029;-70
2022/05/18 00:13:43;;;;;;;2.00;1.60;;;;;;;12.06;96.69;98840.84;5047930;28;20036;-70
2022/05/18 00:16:09;;;;;;;2.85;1.88;;;;;;;12.08;96.27;98829.34;5045130;28;20025;-70
2022/05/18 00:18:34;;;;;;;4.45;2.30;;;;;;;12.13;95.81;98827.47;5044014;28;20028;-70
2022/05/18 00:21:00;;;;;;;4.13;2.05;;;;;;;11.89;95.98;98822.72;5051669;28;20096;-70
2022/05/18 00:23:26;;;;;;;4.60;1.95;;;;;;;11.82;96.69;98823.75;5044236;28;20093;-70
2022/05/18 00:25:53;;;;;;;4.60;1.90;;;;;;;11.92;97.39;98825.28;5049618;28;20220;-70
2022/05/18 00:28:18;;;;;;;2.45;1.77;;;;;;;11.81;96.34;98824.69;5046319;28;20044;-70
2022/05/18 00:30:43;;;;;;;3.55;1.63;;;;;;;11.85;97.20;98826.34;5043783;28;20087;-70
2022/05/18 00:33:10;;;;;;;4.35;2.10;;;;;;;11.93;97.50;98821.75;5050198;28;20313;-70
2022/05/18 00:35:37;;;;;;;6.30;2.13;;;;;;;11.95;95.93;98827.88;5063179;28;20017;-70
2022/05/18 00:38:04;;;;;;;3.25;2.00;;;;;;;11.80;96.68;98820.28;5063227;28;20024;-70
2022/05/18 00:40:31;;;;;;;2.25;1.67;;;;;;;11.69;97.14;98824.03;5047455;28;20017;-70
2022/05/18 00:42:57;;;;;;;2.30;1.60;;;;;;;11.72;97.59;98819.59;5043752;28;20032;-70
2022/05/18 00:45:24;;;;;;;3.90;1.73;;;;;;;11.62;97.19;98818.06;5050364;28;20028;-70
2022/05/18 00:47:50;;;;;;;2.65;1.92;;;;;;;11.58;97.73;98821.59;5062894;28;20075;-70
2022/05/18 00:50:24;;;;;;;4.68;2.60;;;;;;;11.53;99.80;98818.19;5061637;28;20028;-70
2022/05/18 00:52:59;;;;;;;2.72;1.88;;;;;;;11.58;100.00;98818.94;5061960;28;20327;-70
2022/05/18 00:55:27;;;;;;;3.70;2.10;;;;;;;11.59;99.54;98819.84;5063053;28;20024;-70
2022/05/18 00:58:08;;;;;;;3.67;2.00;;;;;;;11.50;98.77;98818.25;5048108;28;20096;-70
2022/05/18 01:00:37;;;;;;;3.70;2.05;;;;;;;11.56;98.70;98823.41;5044083;28;20048;-70
2022/05/18 01:03:12;;;;;;;5.18;2.22;;;;;;;11.47;98.74;98826.22;5049654;28;20021;-70
2022/05/18 01:05:39;;;;;;;3.60;1.90;;;;;;;11.44;98.67;98823.66;5061525;28;20024;-70
2022/05/18 01:08:05;;;;;;;2.50;1.60;;;;;;;11.45;97.98;98820.09;5049432;28;20092;-70
2022/05/18 01:10:30;;;;;;;3.03;2.20;;;;;;;11.43;97.98;98824.56;5059999;28;20028;-70
2022/05/18 01:12:57;;;;;;;2.80;2.10;;;;;;;11.30;97.65;98824.81;5059748;28;20092;-70
2022/05/18 01:15:23;;;;;;;2.85;1.70;;;;;;;11.30;98.42;98823.06;5054113;28;20092;-70
2022/05/18 01:17:53;;;;;;;2.97;1.83;;;;;;;11.22;98.74;98822.31;5065313;28;20028;-70
2022/05/18 01:20:25;;;;;;;4.72;2.13;;;;;;;11.19;99.41;98827.66;5065613;28;20040;-70
2022/05/18 01:23:09;;;;;;;4.90;1.75;;;;;;;11.26;99.43;98824.00;5047118;28;20025;-70
2022/05/18 01:25:59;;;;;;;2.42;1.80;;;;;;;11.16;97.89;98821.56;5048945;28;20027;-70
2022/05/18 01:28:31;;;;;;;3.20;1.88;;;;;;;11.17;98.41;98821.53;5049849;28;20033;-70
2022/05/18 01:30:56;;;;;;;3.27;1.70;;;;;;;11.15;98.39;98828.59;5046966;28;20217;-70
2022/05/18 01:33:22;;;;;;;3.53;2.08;;;;;;;11.13;98.33;98826.91;5053998;28;20028;-70
2022/05/18 01:35:48;;;;;;;3.58;2.03;;;;;;;11.16;98.67;98822.44;5047928;28;20217;-70
2022/05/18 01:38:15;;;;;;;3.17;2.00;;;;;;;11.23;98.57;98829.31;5046870;28;20040;-70
2022/05/18 01:40:41;;;;;;;6.38;2.03;;;;;;;11.04;98.54;98808.63;5062864;28;20024;-70
2022/05/18 01:43:24;;;;;;;2.40;1.75;;;;;;;10.99;98.71;98821.88;5047888;28;20332;-70
2022/05/18 01:45:55;;;;;;;3.88;2.08;;;;;;;11.01;99.30;98825.34;5054555;28;20036;-70
2022/05/18 01:48:29;;;;;;;4.57;2.15;;;;;;;11.16;99.27;98832.97;5054192;28;20047;-70
2022/05/18 01:51:01;;;;;;;2.10;1.60;;;;;;;11.13;97.08;98832.19;5046513;28;20025;-70
2022/05/18 01:53:28;;;;;;;3.05;2.00;;;;;;;10.88;98.05;98826.47;5057345;28;20032;-70
2022/05/18 01:55:54;;;;;;;2.60;1.85;;;;;;;10.84;99.13;98830.03;5065969;28;20025;-70
2022/05/18 01:58:19;;;;;;;3.88;1.92;;;;;;;10.77;99.47;98834.56;5056523;28;20032;-70
2022/05/18 02:00:46;;;;;;;2.67;1.85;;;;;;;10.72;99.41;98835.50;5047585;28;20066;-70
2022/05/18 02:03:12;;;;;;;3.13;2.03;;;;;;;10.81;100.00;98840.63;5046302;28;20088;-70
2022/05/18 02:05:39;;;;;;;5.28;2.85;;;;;;;10.75;100.00;98840.72;5064164;28;20025;-70
2022/05/18 02:08:05;;;;;;;4.30;2.15;;;;;;;10.76;100.00;98837.22;5065937;28;20042;-70
2022/05/18 02:10:32;;;;;;;3.10;2.03;;;;;;;10.68;100.00;98844.38;5057980;28;20095;-70
2022/05/18 02:12:57;;;;;;;4.55;2.42;;;;;;;10.71;100.00;98852.22;5046244;28;20025;-70
2022/05/18 02:15:23;;;;;;;5.43;2.38;;;;;;;10.69;99.76;98851.34;5060445;28;20154;-70
2022/05/18 02:17:50;;;;;;;13.93;2.58;;;;;;;10.70;100.00;98848.69;5049112;28;20036;-70
2022/05/18 02:20:16;;;;;;;3.08;2.20;;;;;;;10.66;99.58;98847.03;5046023;28;20052;-70
2022/05/18 02:22:42;;;;;;;3.60;2.10;;;;;;;10.73;99.99;98853.06;5052104;28;20035;-70
2022/05/18 02:25:07;;;;;;;3.20;2.05;;;;;;;10.69;99.41;98854.00;5065129;28;20052;-70
2022/05/18 02:27:33;;;;;;;3.03;1.92;;;;;;;10.56;100.00;98860.34;5061176;28;20029;-70
2022/05/18 02:29:59;;;;;;;3.15;1.98;;;;;;;10.57;100.00;98862.09;5060088;28;20028;-70
2022/05/18 02:32:26;;;;;;;3.10;2.05;;;;;;;10.63;99.96;98859.34;5065005;28;20037;-70
2022/05/18 02:34:51;;;;;;;3.55;1.85;;;;;;;10.48;99.02;98855.19;5060277;28;20021;-70
2022/05/18 02:37:17;;;;;;;6.95;2.40;;;;;;;10.54;99.44;98846.38;5053496;28;20032;-70
2022/05/18 02:39:42;;;;;;;3.00;2.00;;;;;;;10.58;99.10;98854.19;5065008;28;20052;-70
2022/05/18 02:42:07;;;;;;;3.20;1.92;;;;;;;10.49;99.03;98850.81;5051273;28;20132;-71
2022/05/18 02:44:33;;;;;;;4.95;1.80;;;;;;;10.53;99.07;98850.75;5045632;28;20021;-71
2022/05/18 02:46:59;;;;;;;3.08;2.08;;;;;;;10.60;99.49;98862.06;5048425;28;20031;-71
2022/05/18 02:49:26;;;;;;;2.92;2.08;;;;;;;10.63;99.28;98859.34;5064806;28;20238;-71
2022/05/18 02:51:52;;;;;;;4.97;2.20;;;;;;;10.67;99.17;98859.28;5064554;28;20035;-71
2022/05/18 02:57:03;;;;;;;3.30;1.85;;;;;;;10.43;100.00;98869.31;5045395;28;20028;-71
2022/05/18 02:59:29;;;;;;;3.92;2.20;;;;;;;10.45;100.00;98868.41;5052967;28;20031;-71
2022/05/18 03:01:55;;;;;;;2.15;1.80;;;;;;;10.53;100.00;98870.91;5045742;28;20052;-71
2022/05/18 03:04:20;;;;;;;2.72;1.98;;;;;;;10.53;100.00;98877.06;5045204;28;20025;-71
2022/05/18 03:06:46;;;;;;;9.18;2.53;;;;;;;10.46;100.00;98871.91;5061753;28;20024;-71
2022/05/18 03:09:11;;;;;;;4.38;2.13;;;;;;;10.47;100.00;98886.81;5064534;28;20025;-71
2022/05/18 03:11:37;;;;;;;3.40;1.85;;;;;;;10.49;99.70;98885.03;5058108;28;20233;-71
2022/05/18 03:14:02;;;;;;;5.50;1.83;;;;;;;10.37;99.09;98886.09;5062298;28;20033;-71
2022/05/18 03:16:29;;;;;;;3.45;2.00;;;;;;;10.42;99.49;98891.28;5064351;28;20048;-71
2022/05/18 03:18:55;;;;;;;3.40;2.00;;;;;;;10.44;99.53;98893.00;5048848;28;20071;-71
2022/05/18 03:24:04;;;;;;;1.88;1.52;;;;;;;10.46;99.54;98895.59;5055947;28;20087;-71
2022/05/18 03:26:30;;;;;;;2.58;1.90;;;;;;;10.46;98.67;98900.84;5044842;28;20029;-71
2022/05/18 03:28:56;;;;;;;3.13;2.15;;;;;;;10.40;98.73;98900.94;5044715;28;20325;-71
2022/05/18 03:31:26;;;;;;;2.83;2.10;;;;;;;10.32;99.43;98903.69;5045761;28;20238;-71
2022/05/18 03:33:54;;;;;;;2.78;2.08;;;;;;;10.33;99.47;98909.81;5044732;28;20025;-71
2022/05/18 03:36:20;;;;;;;2.90;1.92;;;;;;;10.31;99.57;98911.59;5051651;28;20028;-71
2022/05/18 03:38:47;;;;;;;3.35;2.05;;;;;;;10.24;99.06;98909.94;5063714;28;20032;-71
2022/05/18 03:41:13;;;;;;;2.45;1.77;;;;;;;10.31;99.99;98908.97;5063823;28;20032;-71
2022/05/18 03:43:39;;;;;;;2.90;2.25;;;;;;;10.30;99.79;98907.22;5048715;28;20029;-71
2022/05/18 03:46:05;;;;;;;3.70;2.13;;;;;;;10.36;100.00;98908.03;5044457;28;20032;-71
2022/05/18 03:48:32;;;;;;;2.33;2.00;;;;;;;10.42;99.25;98909.69;5046603;28;20360;-71
2022/05/18 03:50:59;;;;;;;2.53;1.83;;;;;;;10.42;98.71;98909.69;5044360;28;20353;-71
2022/05/18 03:53:26;;;;;;;3.45;2.10;;;;;;;10.45;98.97;98909.66;5044354;28;20219;-71
2022/05/18 03:55:51;;;;;;;3.05;1.83;;;;;;;10.44;98.88;98913.19;5063296;28;20092;-71
2022/05/18 03:58:17;;;;;;;1.95;1.70;;;;;;;10.38;98.56;98913.28;5063664;28;20021;-71
2022/05/18 04:00:44;;;;;;;3.33;1.83;;;;;;;10.32;98.44;98921.25;5054511;28;20037;-71
2022/05/18 04:03:11;;;;;;;3.00;1.90;;;;;;;10.16;99.18;98917.09;5056264;28;20216;-71
2022/05/18 04:05:38;;;;;;;9.90;2.53;;;;;;;10.31;100.00;98916.84;5057013;28;20021;-71
2022/05/18 04:08:05;;;;;;;4.60;1.95;;;;;;;10.34;98.83;98917.69;5061775;28;20021;-71
2022/05/18 04:10:31;;;;;;;6.30;2.20;;;;;;;10.24;99.02;98920.47;5062061;28;20351;-71
2022/05/18 04:12:56;;;;;;;3.13;2.30;;;;;;;10.16;99.85;98917.09;5063494;28;20092;-71
2022/05/18 04:15:22;;;;;;;3.25;2.20;;;;;;;10.33;100.00;98928.25;5059566;28;20212;-71
2022/05/18 04:17:48;;;;;;;3.00;2.25;;;;;;;10.34;100.00;98922.97;5053973;28;20017;-71
2022/05/18 04:20:17;;;;;;;3.50;2.33;;;;;;;10.48;100.00;98930.66;5049026;28;20040;-71
2022/05/18 04:22:43;;;;;;;2.72;2.08;;;;;;;10.52;99.55;98932.34;5057149;28;20320;-71
2022/05/18 04:25:10;;;;;;;3.78;2.05;;;;;;;10.49;99.52;98932.41;5062402;28;20028;-71
2022/05/18 04:27:36;;;;;;;3.38;1.60;;;;;;;10.62;99.36;98939.22;5062051;28;20024;-71
2022/05/18 04:30:03;;;;;;;1.88;1.65;;;;;;;10.63;98.87;98935.69;5062470;28;20331;-71
2022/05/18 04:32:28;;;;;;;3.38;2.28;;;;;;;10.64;99.28;98940.06;5048178;28;20026;-71
2022/05/18 04:34:54;;;;;;;3.10;2.00;;;;;;;10.65;99.64;98940.06;5049888;28;20029;-71
2022/05/18 04:37:19;;;;;;;2.42;1.77;;;;;;;10.84;98.86;98938.00;5063718;28;20067;-71
2022/05/18 04:39:46;;;;;;;2.58;2.00;;;;;;;10.98;97.74;98936.00;5063746;28;20193;-71
2022/05/18 04:42:11;;;;;;;3.28;2.13;;;;;;;11.01;97.97;98935.97;5063666;28;20025;-71
2022/05/18 04:44:37;;;;;;;4.03;2.45;;;;;;;11.12;97.54;98939.31;5063709;28;20017;-71
2022/05/18 04:47:03;;;;;;;5.55;1.90;;;;;;;11.32;96.91;98947.72;5063723;28;20070;-71
2022/05/18 04:49:29;;;;;;;2.90;1.98;;;;;;;12.07;93.94;98954.25;5063614;28;20049;-71
2022/05/18 04:51:55;;;;;;;2.30;1.75;;;;;;;13.16;88.98;98946.53;5064780;28;20339;-71
2022/05/18 04:54:20;;;;;;;2.55;1.70;;;;;;;13.91;85.10;98963.03;5067635;28;20379;-71
2022/05/18 04:56:46;;;;;;;2.60;1.98;;;;;;;14.42;83.11;98964.22;5067585;28;20045;-71
2022/05/18 04:59:12;;;;;;;3.10;1.83;;;;;;;14.92;80.88;98971.53;5067533;28;20087;-71
2022/05/18 05:01:38;;;;;;;1.92;1.55;;;;;;;15.47;78.70;98971.50;5067457;28;20044;-71
2022/05/18 05:04:09;;;;;;;3.47;1.55;;;;;;;15.88;77.75;98976.25;5067447;28;20374;-71
2022/05/18 05:06:35;;;;;;;1.77;1.60;;;;;;;16.33;76.11;98977.25;5067476;28;20024;-71
2022/05/18 05:09:01;;;;;;;2.75;2.10;;;;;;;16.68;75.01;98979.50;5067390;28;20029;-71
2022/05/18 05:11:26;;;;;;;2.60;1.55;;;;;;;16.93;73.58;98977.63;5067240;28;20023;-71
2022/05/18 05:13:52;;;;;;;1.50;1.35;;;;;;;17.24;73.03;98980.81;5067372;28;20026;-71
2022/05/18 05:16:17;;;;;;;1.38;1.27;;;;;;;17.56;71.97;98976.00;5067267;28;20021;-71
2022/05/18 05:18:42;;;;;;;6.53;1.70;;;;;;;17.82;71.07;98983.75;5067216;28;20055;-71
2022/05/18 05:21:08;;;;;;;3.55;1.55;;;;;;;18.12;70.10;98982.41;5067155;28;20327;-71
2022/05/18 05:23:33;;;;;;;2.28;1.42;;;;;;;18.22;69.40;98978.41;5067103;28;20020;-71
2022/05/18 05:25:59;;;;;;;2.53;1.67;;;;;;;18.47;69.13;98984.38;5067338;28;20021;-71
2022/05/18 05:28:25;;;;;;;3.05;1.73;;;;;;;18.69;69.43;98982.47;5067055;28;20032;-71
2022/05/18 05:30:52;;;;;;;2.38;1.40;;;;;;;18.96;68.61;98986.53;5066894;28;20032;-71
2022/05/18 05:33:18;;;;;;;1.92;1.40;;;;;;;18.96;69.13;98983.88;5067156;28;20268;-71
2022/05/18 05:35:44;;;;;;;2.50;1.70;;;;;;;19.22;68.35;98987.03;5066823;28;20024;-71
2022/05/18 05:38:10;;;;;;;1.95;1.50;;;;;;;19.57;67.04;98989.78;5066843;28;20035;-71
2022/05/18 05:40:37;;;;;;;3.20;1.67;;;;;;;19.90;67.17;98996.09;5066790;28;20021;-71
2022/05/18 05:43:10;;;;;;;4.85;1.92;;;;;;;20.02;65.99;98991.00;5066747;28;20074;-71
2022/05/18 05:45:36;;;;;;;2.53;1.60;;;;;;;19.80;66.33;98985.00;5066697;28;20220;-71
2022/05/18 05:48:03;;;;;;;3.10;1.60;;;;;;;20.22;65.85;98993.50;5066506;28;20076;-71
2022/05/18 05:50:30;;;;;;;2.85;1.80;;;;;;;20.59;65.58;98993.31;5066600;28;20032;-71
2022/05/18 05:52:57;;;;;;;4.55;1.60;;;;;;;20.95;64.89;98994.00;5066634;28;20027;-71
2022/05/18 05:55:22;;;;;;;2.38;1.45;;;;;;;21.24;64.93;98990.53;5066562;28;20025;-71
2022/05/18 05:57:48;;;;;;;3.55;1.73;;;;;;;21.56;63.95;98993.22;5066427;28;20025;-71
2022/05/18 06:00:14;;;;;;;2.30;1.70;;;;;;;21.65;64.67;98990.00;5066416;28;20028;-71
2022/05/18 06:02:39;;;;;;;2.47;1.90;;;;;;;21.88;63.54;98995.78;5065743;28;20034;-71
2022/05/18 06:05:05;;;;;;;3.17;1.60;;;;;;;22.28;62.73;98999.63;5065581;28;20086;-71
2022/05/18 06:07:31;;;;;;;9.57;1.60;;;;;;;22.29;64.43;98994.16;5066287;28;20216;-71
2022/05/18 06:09:57;;;;;;;2.92;2.00;;;;;;;22.15;63.79;98994.13;5066226;28;20024;-71
2022/05/18 06:12:26;;;;;;;2.35;1.70;;;;;;;22.81;63.53;98995.38;5066159;28;20036;-71
2022/05/18 06:14:51;;;;;;;1.63;1.50;;;;;;;23.35;61.51;98993.72;5066110;28;20074;-71
2022/05/18 06:17:17;;;;;;;2.72;2.00;;;;;;;23.48;61.14;98997.31;5066083;28;20324;-71
2022/05/18 06:19:43;;;;;;;2.25;1.67;;;;;;;24.01;59.32;99002.69;5066025;28;20025;-71
2022/05/18 06:22:08;;;;;;;5.57;1.77;;;;;;;24.15;60.14;98999.94;5065956;28;20071;-71
2022/05/18 06:24:35;;;;;;;2.40;1.60;;;;;;;24.47;60.40;99005.78;5066179;28;20065;-71
2022/05/18 06:27:00;;;;;;;2.88;1.75;;;;;;;24.76;60.38;99008.19;5065946;28;20024;-71
2022/05/18 06:29:26;;;;;;;1.98;1.70;;;;;;;24.79;59.27;99012.50;5065842;28;20021;-71
2022/05/18 06:31:52;;;;;;;3.05;1.85;;;;;;;25.03;58.59;99011.59;5065804;28;20025;-71
2022/05/18 06:34:21;;;;;;;2.78;2.00;;;;;;;25.03;58.42;99016.97;5065775;28;20028;-71
2022/05/18 06:36:47;;;;;;;3.25;2.10;;;;;;;25.77;57.85;99008.81;5065709;28;20029;-71
2022/05/18 06:39:12;;;;;;;5.57;1.92;;;;;;;25.78;59.22;99004.31;5065725;28;20058;-71
2022/05/18 06:41:37;;;;;;;3.22;1.63;;;;;;;26.53;56.45;99022.75;5065683;28;20024;-71
2022/05/18 06:44:04;;;;;;;2.53;1.77;;;;;;;27.00;56.38;99014.50;5065625;28;20084;-71
2022/05/18 06:46:36;;;;;;;3.63;1.70;;;;;;;27.37;54.98;99021.41;5065594;28;20383;-71
2022/05/18 06:49:03;;;;;;;4.43;2.28;;;;;;;26.94;53.26;99009.59;5065363;28;20051;-71
2022/05/18 06:51:32;;;;;;;2.63;2.25;;;;;;;27.30;54.89;99011.22;5065615;28;20031;-71
2022/05/18 06:53:58;;;;;;;2.75;1.70;;;;;;;28.32;52.98;99025.06;5065407;28;20017;-71
2022/05/18 06:56:26;;;;;;;3.38;1.80;;;;;;;28.71;51.87;99028.94;5065393;28;20063;-71
2022/05/18 06:58:53;;;;;;;1.98;1.40;;;;;;;28.59;50.89;99019.16;5065292;28;20025;-71
2022/05/18 07:01:19;;;;;;;1.83;1.27;;;;;;;28.99;49.73;99026.41;5065291;28;20021;-71
2022/05/18 07:03:45;;;;;;;3.00;1.98;;;;;;;29.33;50.44;99028.88;5065123;28;20048;-71
2022/05/18 07:06:13;;;;;;;4.03;2.00;;;;;;;29.63;49.78;99020.69;5065151;28;20024;-71
2022/05/18 07:08:39;;;;;;;4.88;1.80;;;;;;;29.20;49.49;99021.81;5065414;28;20376;-71
2022/05/18 07:11:05;;;;;;;3.90;1.80;;;;;;;29.48;48.78;99016.66;5063837;28;20025;-71
2022/05/18 07:13:35;;;;;;;2.67;1.45;;;;;;;29.83;47.32;99022.47;5065268;28;20021;-71
2022/05/18 07:16:02;;;;;;;3.88;1.67;;;;;;;29.87;47.44;99018.47;5064648;28;20028;-71
2022/05/18 07:18:29;;;;;;;3.13;1.48;;;;;;;29.10;46.80;99012.78;5065145;28;20204;-71
2022/05/18 07:20:59;;;;;;;4.30;1.92;;;;;;;29.44;46.71;99004.34;5064893;28;20039;-71
2022/05/18 07:23:26;;;;;;;3.08;1.50;;;;;;;28.89;43.96;99013.81;5064849;28;20292;-71
2022/05/18 07:25:53;;;;;;;2.47;1.50;;;;;;;28.83;44.36;99015.19;5064858;28;20283;-71
2022/05/18 07:28:19;;;;;;;3.33;1.77;;;;;;;28.83;44.42;99015.19;5064747;28;20089;-71
2022/05/18 07:30:45;;;;;;;3.05;1.88;;;;;;;29.23;44.19;99006.28;5064627;28;20220;-71
2022/05/18 07:33:10;;;;;;;5.85;1.92;;;;;;;28.91;42.89;99007.25;5064620;28;20088;-71
2022/05/18 07:35:36;;;;;;;2.28;1.88;;;;;;;28.93;43.81;99016.09;5064563;28;20025;-71
2022/05/18 07:38:02;;;;;;;3.22;2.17;;;;;;;29.33;44.33;99007.16;5064594;28;20080;-71
2022/05/18 07:40:28;;;;;;;2.83;1.70;;;;;;;29.39;42.71;99007.47;5064780;28;20031;-71
2022/05/18 07:42:56;;;;;;;3.63;1.60;;;;;;;29.50;43.05;99014.63;5064540;28;20029;-71
2022/05/18 07:45:22;;;;;;;2.08;1.30;;;;;;;29.27;43.26;99013.13;5064568;28;20028;-71
2022/05/18 07:47:48;;;;;;;2.35;1.45;;;;;;;28.94;42.06;99011.53;5064223;28;20099;-71
2022/05/18 07:50:14;;;;;;;3.67;1.63;;;;;;;29.43;43.34;99018.91;5064513;28;20342;-71
2022/05/18 07:52:39;;;;;;;2.53;1.67;;;;;;;29.92;43.37;99013.47;5064307;28;20084;-71
2022/05/18 07:55:06;;;;;;;3.78;1.80;;;;;;;29.46;42.65;99008.66;5064496;28;20049;-71
2022/05/18 07:57:32;;;;;;;1.83;1.40;;;;;;;29.63;41.97;99015.28;5064250;28;20077;-71
2022/05/18 07:59:59;;;;;;;3.20;1.45;;;;;;;30.43;42.19;99016.81;5063069;28;20024;-71
2022/05/18 08:02:29;;;;;;;2.67;1.40;;;;;;;30.71;41.13;99022.19;5064345;28;20055;-71
2022/05/18 08:04:55;;;;;;;1.93;1.00;;;;;;;30.29;40.28;99009.09;5064209;28;20062;-71
2022/05/18 08:07:20;;;;;;;5.72;2.08;;;;;;;30.00;41.13;99003.63;5064204;28;20255;-71
2022/05/18 08:15:29;;;;;;;3.28;1.50;;;;;;;30.33;41.15;99005.06;5063979;28;20097;-71
2022/05/18 08:17:55;;;;;;;3.63;1.52;;;;;;;30.73;39.76;99003.06;5063997;28;20095;-71
2022/05/18 08:20:22;;;;;;;2.95;1.42;;;;;;;30.68;40.68;99010.75;5063857;28;20025;-71
2022/05/18 08:22:47;;;;;;;1.50;1.17;;;;;;;29.89;39.57;99001.03;5063903;28;20102;-71
2022/05/18 08:25:13;;;;;;;7.30;1.67;;;;;;;30.11;41.49;99005.31;5063883;28;20020;-71
2022/05/18 08:27:41;;;;;;;1.45;1.27;;;;;;;30.54;39.81;99005.78;5063357;28;20063;-71
2022/05/18 08:30:08;;;;;;;2.28;1.63;;;;;;;30.98;37.45;99002.41;5063853;28;20027;-71
2022/05/18 08:32:33;;;;;;;5.57;1.90;;;;;;;29.99;38.73;99001.91;5063778;28;20024;-71
2022/05/18 08:34:59;;;;;;;3.03;1.55;;;;;;;30.51;39.57;99003.34;5063866;28;20063;-71
2022/05/18 08:37:24;;;;;;;2.25;1.45;;;;;;;30.71;39.29;98999.59;5063843;28;20331;-71
2022/05/18 08:39:51;;;;;;;3.88;1.63;;;;;;;30.57;41.15;99002.78;5063724;28;20099;-71
2022/05/18 08:42:19;;;;;;;5.07;1.25;;;;;;;31.45;38.28;99006.84;5063777;28;20044;-71
2022/05/18 08:44:46;;;;;;;3.47;1.70;;;;;;;31.09;37.34;99010.38;5063705;28;20020;-71
2022/05/18 08:47:27;;;;;;;2.78;1.60;;;;;;;31.40;37.36;99011.84;5063683;28;20320;-71
2022/05/18 08:49:56;;;;;;;2.33;1.50;;;;;;;30.67;39.17;99009.03;5063583;28;20071;-71
2022/05/18 08:52:33;;;;;;;3.05;1.70;;;;;;;30.63;38.54;99013.06;5063788;28;20351;-71
2022/05/18 08:55:04;;;;;;;2.20;1.50;;;;;;;31.74;37.17;99020.25;5063646;28;20224;-71
2022/05/18 08:57:38;;;;;;;3.78;1.70;;;;;;;32.27;37.18;99016.59;5063594;28;20343;-71
2022/05/18 09:00:13;;;;;;;4.20;1.67;;;;;;;31.76;37.58;99016.38;5063588;28;20066;-71
2022/05/18 09:02:41;;;;;;;4.28;1.67;;;;;;;31.83;39.18;99017.53;5063732;28;20043;-71
2022/05/18 09:05:12;;;;;;;2.53;1.75;;;;;;;32.46;37.28;99021.91;5063557;28;20265;-71
2022/05/18 09:07:43;;;;;;;2.50;1.60;;;;;;;32.46;36.80;99027.34;5063508;28;20024;-71
2022/05/18 09:10:33;;;;;;;3.03;1.73;;;;;;;32.07;38.04;99019.63;5063520;28;20025;-71
2022/05/18 09:12:58;;;;;;;2.05;1.50;;;;;;;32.48;38.82;99028.06;5063485;28;20029;-71
2022/05/18 09:15:55;;;;;;;2.85;1.60;;;;;;;32.52;35.81;99026.72;5063465;28;20084;-71
2022/05/18 09:18:41;;;;;;;3.38;2.10;;;;;;;31.50;37.39;99017.28;5063634;28;20017;-71
2022/05/18 09:21:07;;;;;;;4.00;1.90;;;;;;;32.29;38.13;99025.47;5063408;28;20027;-71
2022/05/18 09:23:44;;;;;;;3.35;1.50;;;;;;;32.42;38.62;99020.50;5063376;28;20221;-71
2022/05/18 09:26:35;;;;;;;3.45;1.50;;;;;;;32.18;37.28;99012.09;5063341;28;20025;-71
2022/05/18 09:29:13;;;;;;;2.03;1.40;;;;;;;32.59;37.45;99016.91;5063361;28;20024;-71
2022/05/18 09:32:00;;;;;;;4.13;2.00;;;;;;;31.48;38.76;99014.69;5063194;28;20224;-71
2022/05/18 09:34:42;;;;;;;3.72;1.80;;;;;;;31.67;37.32;99017.31;5063247;28;20021;-71
2022/05/18 09:37:20;;;;;;;4.65;1.60;;;;;;;31.89;37.83;99019.59;5063234;28;20025;-71
2022/05/18 09:39:54;;;;;;;2.75;1.60;;;;;;;32.50;37.44;99020.59;5066840;28;20036;-71
2022/05/18 09:42:26;;;;;;;1.88;1.60;;;;;;;32.45;36.80;99014.75;5066809;28;20016;-71
2022/05/18 09:45:15;;;;;;;2.13;1.48;;;;;;;32.20;37.78;99010.06;5066737;28;20021;-71
2022/05/18 09:47:47;;;;;;;2.90;1.60;;;;;;;31.80;37.92;99006.91;5066562;28;20259;-71
2022/05/18 09:50:13;;;;;;;1.73;1.40;;;;;;;31.72;38.02;99014.97;5066670;28;20029;-71
2022/05/18 09:52:41;;;;;;;2.92;1.63;;;;;;;31.73;37.52;99005.78;5066820;28;20044;-71
2022/05/18 09:55:11;;;;;;;2.75;1.73;;;;;;;31.60;36.94;98999.84;5066795;28;20024;-71
2022/05/18 09:57:48;;;;;;;3.33;1.47;;;;;;;31.96;38.08;99007.13;5066509;28;20216;-71
2022/05/18 10:00:18;;;;;;;6.50;1.55;;;;;;;30.95;38.32;98991.84;5066426;28;20047;-71
2022/05/18 10:08:44;;;;;;;2.22;1.45;;;;;;;33.20;37.45;98994.16;5066297;28;20027;-71
2022/05/18 10:11:19;;;;;;;3.45;1.60;;;;;;;32.86;37.13;98997.72;5066162;28;20017;-71
2022/05/18 10:14:17;;;;;;;3.30;1.70;;;;;;;32.26;34.89;98992.22;5066186;28;20013;-71
2022/05/18 10:16:42;;;;;;;2.53;1.70;;;;;;;32.17;36.97;98994.03;5066349;28;20028;-71
2022/05/18 10:19:24;;;;;;;3.17;1.70;;;;;;;31.76;36.44;98986.41;5066166;28;20025;-71
2022/05/18 10:21:58;;;;;;;3.20;1.50;;;;;;;31.80;37.15;98990.56;5066083;28;20016;-71
2022/05/18 10:24:26;;;;;;;4.22;1.75;;;;;;;32.00;35.28;98986.72;5066056;28;20201;-71
2022/05/18 10:27:15;;;;;;;2.45;1.70;;;;;;;31.62;36.22;98981.50;5065975;28;20021;-71
2022/05/18 10:29:50;;;;;;;2.97;1.52;;;;;;;31.46;37.59;98978.59;5065916;28;20047;-71
2022/05/18 10:32:27;;;;;;;1.52;1.40;;;;;;;30.80;36.72;98971.56;5066056;28;20036;-71
2022/05/18 10:34:54;;;;;;;5.30;1.90;;;;;;;30.54;37.10;98975.88;5066083;28;20021;-71
2022/05/18 10:37:28;;;;;;;3.72;1.67;;;;;;;31.31;38.02;98971.94;5065778;28;20062;-71
2022/05/18 10:40:01;;;;;;;4.57;2.05;;;;;;;31.75;36.90;98976.56;5065939;28;20024;-71
2022/05/18 10:42:48;;;;;;;6.40;1.90;;;;;;;31.57;38.09;98972.94;5065781;28;20078;-71
2022/05/18 10:45:25;;;;;;;6.55;1.70;;;;;;;32.47;37.36;98980.03;5065892;28;20247;-71
2022/05/18 10:47:53;;;;;;;2.72;1.52;;;;;;;32.65;35.07;98977.25;5065383;28;20029;-71
2022/05/18 10:50:20;;;;;;;2.83;1.90;;;;;;;31.79;36.75;98968.94;5064704;28;20265;-71
2022/05/18 10:52:45;;;;;;;2.22;1.52;;;;;;;31.02;37.67;98960.31;5065476;28;20209;-71
2022/05/18 10:55:16;;;;;;;2.78;1.60;;;;;;;30.97;37.97;98957.22;5065424;28;20032;-71
2022/05/18 10:57:55;;;;;;;3.20;1.88;;;;;;;31.40;36.62;98962.88;5065352;28;20087;-71
2022/05/18 11:00:24;;;;;;;4.22;1.80;;;;;;;32.02;35.34;98957.47;5065283;28;20024;-71
2022/05/18 11:03:07;;;;;;;3.10;2.10;;;;;;;31.24;36.39;98949.06;5065182;28;20052;-71
2022/05/18 11:05:54;;;;;;;3.88;1.90;;;;;;;31.23;36.86;98952.78;5065184;28;20100;-71
2022/05/18 11:08:24;;;;;;;2.35;1.83;;;;;;;31.20;37.85;98953.09;5065150;28;20343;-71
2022/05/18 11:10:56;;;;;;;3.15;1.77;;;;;;;31.52;38.71;98933.59;5065031;28;20025;-71
2022/05/18 11:13:59;;;;;;;4.82;2.15;;;;;;;31.08;37.18;98933.41;5065444;28;20358;-71
2022/05/18 11:16:34;;;;;;;5.30;1.80;;;;;;;30.93;37.37;98929.44;5065264;28;20094;-71
2022/05/18 11:19:29;;;;;;;3.70;1.83;;;;;;;30.88;37.77;98941.78;5065020;28;20047;-71
2022/05/18 11:22:06;;;;;;;2.22;1.83;;;;;;;31.34;38.64;98933.56;5064923;28;20335;-71
2022/05/18 11:25:01;;;;;;;2.28;1.52;;;;;;;30.83;37.55;98916.91;5064857;28;20044;-71
2022/05/18 11:27:35;;;;;;;2.28;1.70;;;;;;;30.92;38.38;98918.72;5064895;28;20339;-71
2022/05/18 11:30:07;;;;;;;2.47;1.40;;;;;;;30.68;38.60;98919.22;5064810;28;20027;-71
2022/05/18 11:32:57;;;;;;;1.67;1.42;;;;;;;30.55;40.12;98924.13;5064634;28;20316;-71
2022/05/18 11:35:47;;;;;;;1.67;1.55;;;;;;;29.55;39.25;98925.56;5064663;28;20217;-71
2022/05/18 11:38:26;;;;;;;1.67;1.50;;;;;;;29.34;40.89;98919.38;5064614;28;20324;-71
2022/05/18 11:41:10;;;;;;;3.28;1.85;;;;;;;29.55;40.47;98914.72;5064616;28;20078;-71
2022/05/18 11:43:54;;;;;;;3.95;1.90;;;;;;;29.74;40.27;98906.63;5064496;28;20031;-71
2022/05/18 11:46:40;;;;;;;4.28;1.85;;;;;;;30.19;40.49;98916.78;5064394;28;20029;-71
2022/05/18 11:49:26;;;;;;;2.95;1.73;;;;;;;29.06;39.49;98908.34;5064233;28;20052;-71
2022/05/18 11:52:25;;;;;;;4.50;1.90;;;;;;;28.89;40.70;98899.97;5064264;28;20197;-71
2022/05/18 11:55:10;;;;;;;4.50;1.60;;;;;;;29.36;41.51;98901.13;5064295;28;20197;-71
2022/05/18 11:57:54;;;;;;;3.65;1.80;;;;;;;29.29;40.54;98897.25;5064257;28;20052;-71
2022/05/18 12:00:55;;;;;;;2.58;1.75;;;;;;;29.09;41.96;98893.63;5064157;28;20347;-71